Time;durP1;ratioP1;P1;durP2;ratioP2;P2;SDS_P1;SDS_P2;PMS_P1;PMS_P2;Temp;Humidity;BMP_temperature;BMP_pressure;BME280_temperature;BME280_humidity;BME280_pressure;Samples;Min_cycle;Max_cycle;Signal;HPM_P1;HPM_P2
2021/12/05 00:16:49;;;;;;;13.93;4.93;;;;;;;;;;4928289;29;20043;-64
2021/12/05 00:17:44;;;;;;;12.23;5.22;;;;;;;;;;4928535;29;20051;-64
2021/12/05 00:20:51;;;;;;;11.52;3.67;;;;;;;;;;4928166;29;20266;-64
2021/12/05 00:23:21;;;;;;;14.20;3.80;;;;;;;;;;4928746;29;20087;-64
2021/12/05 00:25:51;;;;;;;11.85;3.78;;;;;;;;;;4928481;29;20052;-64
2021/12/05 00:33:47;;;;;;;15.13;3.63;;;;;;;;;;4928447;29;20060;-64
2021/12/05 00:39:19;;;;;;;12.48;4.10;;;;;;;;;;4928689;29;20048;-64
2021/12/05 00:44:55;;;;;;;9.30;3.47;;;;;;;;;;4928622;29;20051;-63
2021/12/05 00:47:33;;;;;;;8.23;3.70;;;;;;;;;;4927793;29;20494;-64
2021/12/05 00:50:34;;;;;;;12.85;4.60;;;;;;;;;;4927815;29;20056;-64
2021/12/05 00:55:44;;;;;;;9.25;4.30;;;;;;;;;;4928931;29;20048;-64
2021/12/05 00:59:05;;;;;;;14.55;4.50;;;;;;;;;;4931807;29;20549;-64
2021/12/05 01:04:25;;;;;;;12.32;4.30;;;;;;;;;;4931071;29;20047;-64
2021/12/05 01:07:04;;;;;;;16.77;4.82;;;;;;;;;;4931317;29;20055;-64
2021/12/05 01:09:37;;;;;;;10.95;4.95;;;;;;;;;;4931383;29;20058;-64
2021/12/05 01:12:18;;;;;;;11.43;4.25;;;;;;;;;;4931516;29;20044;-63
2021/12/05 01:17:14;;;;;;;9.27;3.45;;;;;;;;;;4914276;29;20048;-64
2021/12/05 01:19:40;;;;;;;10.35;3.78;;;;;;;;;;4931232;29;20079;-64
2021/12/05 01:22:12;;;;;;;10.45;4.28;;;;;;;;;;4931014;29;20047;-64
2021/12/05 01:24:52;;;;;;;10.45;3.85;;;;;;;;;;4931318;29;20112;-63
2021/12/05 01:27:35;;;;;;;12.52;4.18;;;;;;;;;;4931780;29;20106;-63
2021/12/05 01:30:09;;;;;;;6.45;3.40;;;;;;;;;;4930294;29;20063;-64
2021/12/05 01:32:56;;;;;;;7.75;3.28;;;;;;;;;;4914171;29;20051;-64
2021/12/05 01:35:45;;;;;;;13.65;4.45;;;;;;;;;;4930772;29;20054;-64
2021/12/05 01:38:33;;;;;;;7.03;3.45;;;;;;;;;;4930141;29;20067;-64
2021/12/05 01:41:14;;;;;;;7.40;3.08;;;;;;;;;;4930809;29;20058;-64
2021/12/05 01:44:18;;;;;;;11.00;3.63;;;;;;;;;;4931186;29;20119;-64
2021/12/05 01:47:01;;;;;;;15.60;4.53;;;;;;;;;;4930106;29;20083;-64
2021/12/05 01:54:55;;;;;;;10.88;3.30;;;;;;;;;;4930679;29;20051;-64
2021/12/05 01:57:44;;;;;;;7.22;3.50;;;;;;;;;;4930769;29;20051;-64
2021/12/05 02:10:55;;;;;;;9.15;2.92;;;;;;;;;;4961255;23;20059;-65
2021/12/05 02:29:36;;;;;;;6.82;3.15;;;;;;;;;;4932036;29;20485;-65
2021/12/05 02:30:13;;;;;;;17.50;5.18;;;;;;;;;;4948304;29;20079;-65
2021/12/05 02:32:58;;;;;;;9.82;4.45;;;;;;;;;;4948931;29;20082;-65
2021/12/05 02:38:11;;;;;;;20.23;6.32;;;;;;;;;;4931226;29;20056;-66
2021/12/05 02:41:07;;;;;;;18.40;6.25;;;;;;;;;;4949178;29;20097;-66
2021/12/05 02:43:38;;;;;;;15.30;6.50;;;;;;;;;;4949083;29;20047;-65
2021/12/05 02:46:05;;;;;;;16.35;7.35;;;;;;;;;;4947899;29;20106;-66
2021/12/05 02:48:34;;;;;;;13.57;6.30;;;;;;;;;;4931213;29;20519;-65
2021/12/05 02:51:04;;;;;;;14.40;6.43;;;;;;;;;;4948904;29;20047;-65
2021/12/05 02:53:44;;;;;;;19.85;6.50;;;;;;;;;;4948968;29;20051;-66
2021/12/05 02:56:11;;;;;;;22.27;7.78;;;;;;;;;;4948638;29;20050;-66
2021/12/05 02:58:49;;;;;;;16.45;7.18;;;;;;;;;;4948927;29;20516;-66
2021/12/05 03:01:22;;;;;;;17.30;7.72;;;;;;;;;;4947606;29;20047;-65
2021/12/05 03:03:49;;;;;;;23.73;8.10;;;;;;;;;;4949042;29;20485;-65
2021/12/05 03:06:20;;;;;;;23.67;7.75;;;;;;;;;;4948504;29;20551;-65
2021/12/05 03:08:47;;;;;;;20.95;8.07;;;;;;;;;;4949100;29;20322;-65
2021/12/05 03:11:13;;;;;;;14.23;7.90;;;;;;;;;;4947950;29;20053;-65
2021/12/05 03:13:40;;;;;;;22.38;7.63;;;;;;;;;;4948417;29;20123;-65
2021/12/05 03:16:07;;;;;;;21.67;8.32;;;;;;;;;;4947322;29;20047;-65
2021/12/05 03:18:34;;;;;;;16.30;8.05;;;;;;;;;;4948126;28;20493;-65
2021/12/05 03:21:01;;;;;;;20.65;8.32;;;;;;;;;;4948179;29;20058;-65
2021/12/05 03:23:28;;;;;;;18.17;8.63;;;;;;;;;;4947974;29;20047;-64
2021/12/05 03:25:54;;;;;;;18.88;8.60;;;;;;;;;;4947966;29;20126;-65
2021/12/05 03:28:20;;;;;;;24.50;8.20;;;;;;;;;;4948465;29;20489;-65
2021/12/05 03:30:46;;;;;;;18.35;8.75;;;;;;;;;;4947617;29;20401;-65
2021/12/05 03:33:13;;;;;;;19.42;7.90;;;;;;;;;;4948052;29;20179;-64
2021/12/05 03:35:39;;;;;;;21.05;8.45;;;;;;;;;;4930902;29;20047;-65
2021/12/05 03:38:05;;;;;;;15.23;7.95;;;;;;;;;;4947569;29;20083;-64
2021/12/05 03:40:33;;;;;;;24.10;9.35;;;;;;;;;;4947926;29;20113;-64
2021/12/05 03:43:00;;;;;;;23.00;8.43;;;;;;;;;;4947919;29;20050;-64
2021/12/05 03:45:28;;;;;;;25.52;9.07;;;;;;;;;;4947096;29;20126;-65
2021/12/05 03:47:56;;;;;;;21.45;8.07;;;;;;;;;;4947934;29;20510;-65
2021/12/05 03:50:24;;;;;;;18.10;7.85;;;;;;;;;;4947817;29;20054;-66
2021/12/05 03:52:50;;;;;;;17.15;7.63;;;;;;;;;;4948084;29;21131;-65
2021/12/05 03:55:17;;;;;;;16.70;8.68;;;;;;;;;;4930905;29;20138;-65
2021/12/05 03:57:43;;;;;;;20.98;7.88;;;;;;;;;;4947930;29;20121;-66
2021/12/05 04:00:17;;;;;;;17.48;7.43;;;;;;;;;;4945661;29;20043;-65
2021/12/05 04:02:45;;;;;;;18.35;8.02;;;;;;;;;;4947849;29;20621;-65
2021/12/05 04:05:11;;;;;;;15.65;6.68;;;;;;;;;;4947731;29;20059;-65
2021/12/05 04:07:37;;;;;;;19.08;7.63;;;;;;;;;;4946475;29;20563;-65
2021/12/05 04:10:04;;;;;;;19.77;7.40;;;;;;;;;;4946952;29;20412;-65
2021/12/05 04:12:30;;;;;;;20.23;7.55;;;;;;;;;;4947553;29;20059;-65
2021/12/05 04:14:56;;;;;;;23.95;7.50;;;;;;;;;;4946648;29;20079;-66
2021/12/05 04:17:23;;;;;;;18.58;6.43;;;;;;;;;;4947411;29;20472;-66
2021/12/05 04:19:51;;;;;;;18.17;7.20;;;;;;;;;;4947681;29;20094;-66
2021/12/05 04:22:17;;;;;;;21.40;6.53;;;;;;;;;;4947961;29;20058;-65
2021/12/05 04:24:45;;;;;;;18.83;6.80;;;;;;;;;;4947102;29;20142;-65
2021/12/05 04:27:11;;;;;;;20.05;6.88;;;;;;;;;;4947289;29;20438;-65
2021/12/05 04:29:37;;;;;;;15.80;6.72;;;;;;;;;;4946662;28;20130;-65
2021/12/05 04:32:04;;;;;;;18.65;6.45;;;;;;;;;;4950143;29;20105;-65
2021/12/05 04:34:31;;;;;;;18.13;6.70;;;;;;;;;;4951383;29;20057;-65
2021/12/05 04:36:57;;;;;;;17.95;6.38;;;;;;;;;;4950992;29;20074;-65
2021/12/05 04:39:25;;;;;;;20.13;6.22;;;;;;;;;;4951075;29;20390;-64
2021/12/05 04:41:51;;;;;;;19.67;6.15;;;;;;;;;;4934040;29;20086;-70
2021/12/05 04:44:17;;;;;;;17.10;6.20;;;;;;;;;;4950918;29;20055;-64
2021/12/05 04:46:44;;;;;;;22.90;6.07;;;;;;;;;;4951212;29;20045;-65
2021/12/05 04:49:10;;;;;;;18.52;6.45;;;;;;;;;;4950491;29;20118;-65
2021/12/05 04:51:39;;;;;;;25.20;6.32;;;;;;;;;;4951185;29;20051;-65
2021/12/05 04:54:05;;;;;;;;;;;;;;;;;;4951260;29;20050;-65
2021/12/05 04:56:31;;;;;;;21.10;5.90;;;;;;;;;;4950629;29;19923;-65
2021/12/05 04:58:58;;;;;;;13.38;5.38;;;;;;;;;;4950138;29;20035;-65
2021/12/05 05:01:25;;;;;;;13.82;5.70;;;;;;;;;;4950673;29;20509;-65
2021/12/05 05:03:51;;;;;;;14.32;5.00;;;;;;;;;;4950131;29;20515;-69
2021/12/05 05:06:19;;;;;;;18.10;5.78;;;;;;;;;;4951317;29;20400;-65
2021/12/05 05:08:47;;;;;;;36.85;5.97;;;;;;;;;;4950680;29;20055;-64
2021/12/05 05:11:14;;;;;;;19.10;5.07;;;;;;;;;;4949959;29;20059;-65
2021/12/05 05:13:41;;;;;;;20.40;5.13;;;;;;;;;;4950010;29;20051;-68
2021/12/05 05:16:08;;;;;;;20.52;5.15;;;;;;;;;;4950237;29;20040;-65
2021/12/05 05:18:46;;;;;;;15.30;5.45;;;;;;;;;;4950385;29;20054;-65
2021/12/05 05:21:28;;;;;;;13.02;5.05;;;;;;;;;;4950347;29;20062;-65
2021/12/05 05:24:17;;;;;;;16.80;4.63;;;;;;;;;;4949958;29;20422;-65
2021/12/05 05:40:14;;;;;;;12.30;4.93;;;;;;;;;;4949365;29;20448;-65
2021/12/05 05:43:11;;;;;;;12.75;4.03;;;;;;;;;;4949866;28;20055;-64
2021/12/05 05:50:39;;;;;;;11.10;4.45;;;;;;;;;;4950035;29;20055;-65
2021/12/05 05:53:06;;;;;;;11.90;4.40;;;;;;;;;;4949650;29;20070;-66
2021/12/05 05:55:32;;;;;;;9.27;4.13;;;;;;;;;;4949851;29;20061;-65
2021/12/05 06:00:31;;;;;;;13.27;4.93;;;;;;;;;;4948923;29;20047;-65
2021/12/05 06:05:43;;;;;;;13.32;4.95;;;;;;;;;;4949450;29;20043;-64
2021/12/05 06:08:09;;;;;;;16.45;4.28;;;;;;;;;;4949053;29;20051;-66
2021/12/05 06:10:35;;;;;;;13.27;4.32;;;;;;;;;;4948964;29;20055;-64
2021/12/05 06:13:02;;;;;;;15.32;4.60;;;;;;;;;;4949100;29;20497;-65
2021/12/05 06:15:29;;;;;;;10.63;4.07;;;;;;;;;;4948925;29;20039;-65
2021/12/05 06:17:56;;;;;;;11.75;4.43;;;;;;;;;;4948736;29;20054;-65
2021/12/05 06:20:25;;;;;;;16.95;4.72;;;;;;;;;;4949471;29;20069;-65
2021/12/05 06:22:52;;;;;;;14.60;4.63;;;;;;;;;;4949050;29;20055;-65
2021/12/05 06:25:22;;;;;;;18.45;5.88;;;;;;;;;;4949379;29;20050;-64
2021/12/05 06:27:49;;;;;;;15.38;5.13;;;;;;;;;;4949596;29;20374;-65
2021/12/05 06:30:26;;;;;;;18.30;4.78;;;;;;;;;;4948189;29;20074;-65
2021/12/05 06:46:19;;;;;;;13.02;4.80;;;;;;;;;;4948609;29;20056;-65
2021/12/05 06:48:46;;;;;;;12.05;4.82;;;;;;;;;;4948776;29;20043;-65
2021/12/05 06:51:13;;;;;;;16.05;4.43;;;;;;;;;;4948421;29;20137;-64
2021/12/05 06:53:40;;;;;;;13.70;4.57;;;;;;;;;;4930876;29;20084;-65
2021/12/05 06:56:07;;;;;;;15.50;5.32;;;;;;;;;;4947913;29;20066;-65
2021/12/05 06:58:33;;;;;;;19.73;5.07;;;;;;;;;;4947858;29;20039;-65
2021/12/05 07:01:00;;;;;;;16.17;5.47;;;;;;;;;;4966970;28;20049;-66
2021/12/05 07:03:26;;;;;;;11.70;4.50;;;;;;;;;;4967050;28;20130;-65
2021/12/05 07:08:26;;;;;;;19.13;4.75;;;;;;;;;;4962029;28;20043;-65
2021/12/05 07:15:57;;;;;;;14.40;5.30;;;;;;;;;;4963921;28;20043;-65
2021/12/05 07:23:46;;;;;;;19.13;6.20;;;;;;;;;;4965540;28;20039;-64
2021/12/05 07:26:20;;;;;;;13.43;4.90;;;;;;;;;;4960991;28;20082;-65
2021/12/05 07:42:34;;;;;;;17.30;5.72;;;;;;;;;;4964863;28;20496;-66
2021/12/05 07:45:03;;;;;;;21.65;6.80;;;;;;;;;;4962272;28;20134;-67
2021/12/05 07:47:32;;;;;;;20.05;6.13;;;;;;;;;;4963891;28;20046;-66
2021/12/05 07:50:05;;;;;;;14.02;5.60;;;;;;;;;;4964467;28;20070;-66
2021/12/05 07:52:33;;;;;;;26.17;6.22;;;;;;;;;;4964299;28;20101;-66
2021/12/05 07:55:16;;;;;;;14.77;5.90;;;;;;;;;;4963821;28;20749;-66
2021/12/05 07:58:02;;;;;;;19.98;5.82;;;;;;;;;;4965045;28;20458;-66
2021/12/05 08:16:48;;;;;;;17.67;6.45;;;;;;;;;;4964155;28;20130;-66
2021/12/05 08:19:15;;;;;;;13.85;5.85;;;;;;;;;;4963966;28;20042;-66
2021/12/05 08:21:41;;;;;;;15.02;6.20;;;;;;;;;;4964725;28;20147;-66
2021/12/05 08:24:07;;;;;;;19.55;6.38;;;;;;;;;;4964175;28;20051;-65
2021/12/05 08:26:35;;;;;;;16.70;6.53;;;;;;;;;;4947984;28;20657;-66
2021/12/05 08:29:07;;;;;;;12.93;5.57;;;;;;;;;;4964734;28;20683;-66
2021/12/05 08:31:48;;;;;;;19.02;6.90;;;;;;;;;;4962140;28;20404;-67
2021/12/05 08:42:17;;;;;;;12.75;5.90;;;;;;;;;;4964486;28;20489;-67
2021/12/05 09:51:00;;;;;;;16.65;6.20;;;;;;;;;;4970347;28;20208;-67
2021/12/05 09:52:11;;;;;;;13.70;6.82;;;;;;;;;;4970449;28;20047;-67
2021/12/05 10:03:08;;;;;;;13.98;5.88;;;;;;;;;;4969560;28;20047;-67
2021/12/05 10:08:39;;;;;;;17.88;5.75;;;;;;;;;;4969660;28;20047;-67
2021/12/05 10:13:57;;;;;;;18.48;6.32;;;;;;;;;;4968869;28;20440;-68
2021/12/05 10:16:41;;;;;;;12.20;5.47;;;;;;;;;;4950658;29;20442;-68
2021/12/05 10:19:40;;;;;;;9.95;5.55;;;;;;;;;;4958084;28;20053;-68
2021/12/05 10:38:32;;;;;;;9.88;4.38;;;;;;;;;;4967325;28;20065;-71
2021/12/05 10:41:17;;;;;;;14.98;5.25;;;;;;;;;;4952144;28;20098;-70
2021/12/05 10:43:44;;;;;;;12.77;4.72;;;;;;;;;;4968247;28;20075;-70
2021/12/05 10:46:13;;;;;;;7.47;4.65;;;;;;;;;;4969400;28;20058;-68
2021/12/05 10:48:42;;;;;;;15.23;4.72;;;;;;;;;;4956259;28;20079;-70
2021/12/05 10:51:10;;;;;;;13.38;4.72;;;;;;;;;;4968360;28;20083;-70
2021/12/05 10:53:45;;;;;;;13.15;4.85;;;;;;;;;;4966362;28;20046;-70
2021/12/05 10:56:22;;;;;;;20.90;5.35;;;;;;;;;;4969061;28;20779;-70
2021/12/05 10:58:51;;;;;;;15.93;5.70;;;;;;;;;;4968888;28;20458;-70
2021/12/05 11:01:23;;;;;;;9.60;4.43;;;;;;;;;;4968408;28;20046;-69
2021/12/05 11:03:51;;;;;;;12.13;4.63;;;;;;;;;;4951474;28;20070;-69
2021/12/05 11:06:23;;;;;;;14.00;4.28;;;;;;;;;;4963585;28;20045;-69
2021/12/05 11:08:54;;;;;;;10.90;4.55;;;;;;;;;;4946740;28;20043;-69
2021/12/05 11:11:21;;;;;;;10.27;3.88;;;;;;;;;;4948565;28;20051;-69
2021/12/05 11:13:47;;;;;;;12.35;4.38;;;;;;;;;;4967245;28;20488;-69
2021/12/05 11:16:32;;;;;;;10.80;4.45;;;;;;;;;;4967278;28;20138;-69
2021/12/05 11:18:58;;;;;;;12.57;4.38;;;;;;;;;;4967626;28;20057;-70
2021/12/05 11:21:29;;;;;;;12.95;4.95;;;;;;;;;;4966150;28;20045;-71
2021/12/05 11:24:06;;;;;;;13.05;4.30;;;;;;;;;;4961596;28;20043;-68
2021/12/05 11:26:33;;;;;;;10.85;4.32;;;;;;;;;;4966834;28;20046;-67
2021/12/05 11:28:59;;;;;;;14.05;4.57;;;;;;;;;;4965760;28;20530;-68
2021/12/05 11:31:26;;;;;;;8.90;3.78;;;;;;;;;;4964142;28;20057;-67
2021/12/05 11:33:55;;;;;;;8.98;3.95;;;;;;;;;;4951515;28;20092;-71
2021/12/05 11:36:24;;;;;;;9.25;4.63;;;;;;;;;;4958294;28;20094;-71
2021/12/05 11:38:51;;;;;;;8.25;4.25;;;;;;;;;;4958245;28;20049;-71
2021/12/05 11:41:20;;;;;;;10.52;3.83;;;;;;;;;;4966061;28;20050;-75
2021/12/05 11:43:49;;;;;;;10.13;3.92;;;;;;;;;;4962581;28;20051;-71
2021/12/05 11:46:22;;;;;;;6.68;3.72;;;;;;;;;;4965280;28;20747;-71
2021/12/05 11:48:56;;;;;;;15.35;3.83;;;;;;;;;;4962727;28;20063;-71
2021/12/05 11:51:22;;;;;;;9.73;3.72;;;;;;;;;;4931531;28;20035;-71
2021/12/05 11:53:52;;;;;;;12.57;4.20;;;;;;;;;;4959432;28;20101;-71
2021/12/05 11:56:20;;;;;;;6.75;3.47;;;;;;;;;;4959387;28;20047;-71
2021/12/05 11:59:01;;;;;;;8.88;4.90;;;;;;;;;;4959368;28;20075;-71
2021/12/05 12:01:33;;;;;;;12.77;4.47;;;;;;;;;;4965210;28;20523;-71
2021/12/05 12:04:00;;;;;;;10.18;4.38;;;;;;;;;;4958579;28;20039;-71
2021/12/05 12:06:26;;;;;;;19.08;4.95;;;;;;;;;;4948462;28;20047;-71
2021/12/05 12:08:54;;;;;;;13.32;4.30;;;;;;;;;;4959552;28;20050;-71
2021/12/05 12:11:21;;;;;;;8.18;4.22;;;;;;;;;;4965098;28;20142;-71
2021/12/05 12:13:49;;;;;;;11.98;4.90;;;;;;;;;;4963802;28;20047;-71
2021/12/05 12:16:16;;;;;;;12.05;4.30;;;;;;;;;;4963369;28;20085;-71
2021/12/05 12:18:45;;;;;;;15.10;5.97;;;;;;;;;;4964652;28;20049;-71
2021/12/05 12:21:17;;;;;;;10.48;4.20;;;;;;;;;;4964070;28;20057;-71
2021/12/05 12:23:43;;;;;;;12.88;4.20;;;;;;;;;;4963953;28;20061;-70
2021/12/05 12:26:10;;;;;;;9.65;5.50;;;;;;;;;;4965157;28;20083;-70
2021/12/05 12:28:38;;;;;;;14.57;5.05;;;;;;;;;;4946141;28;20050;-71
2021/12/05 12:31:07;;;;;;;12.23;4.65;;;;;;;;;;4960344;28;20489;-71
2021/12/05 12:33:36;;;;;;;9.05;4.95;;;;;;;;;;4936225;28;20134;-71
2021/12/05 12:36:04;;;;;;;8.93;4.70;;;;;;;;;;4947863;28;20046;-71
2021/12/05 12:38:30;;;;;;;12.53;4.87;;;;;;;;;;4956343;28;20092;-71
2021/12/05 12:40:58;;;;;;;11.57;4.28;;;;;;;;;;4952643;28;20509;-71
2021/12/05 12:43:43;;;;;;;8.68;4.95;;;;;;;;;;4947030;28;20129;-71
2021/12/05 12:46:24;;;;;;;8.45;4.05;;;;;;;;;;4959627;28;20180;-71
2021/12/05 12:48:52;;;;;;;11.18;4.38;;;;;;;;;;4948672;28;20051;-71
2021/12/05 12:51:26;;;;;;;8.80;4.10;;;;;;;;;;4964960;28;20469;-71
2021/12/05 12:53:55;;;;;;;9.68;4.88;;;;;;;;;;4968406;28;20047;-71
2021/12/05 12:56:23;;;;;;;;;;;;;;;;;;4968425;28;20047;-71
2021/12/05 12:58:51;;;;;;;11.40;3.90;;;;;;;;;;4951212;28;19929;-71
2021/12/05 13:04:31;;;;;;;9.20;4.32;;;;;;;;;;4966894;28;20043;-71
2021/12/05 13:10:02;;;;;;;10.77;4.28;;;;;;;;;;4966660;28;20209;-71
2021/12/05 13:12:48;;;;;;;7.15;3.92;;;;;;;;;;4957915;28;20047;-71
2021/12/05 13:15:22;;;;;;;12.00;3.65;;;;;;;;;;4950891;28;20051;-71
2021/12/05 13:17:51;;;;;;;9.27;3.60;;;;;;;;;;4961510;28;20071;-71
2021/12/05 13:20:21;;;;;;;9.65;4.10;;;;;;;;;;4951811;28;20039;-71
2021/12/05 13:22:59;;;;;;;14.68;4.00;;;;;;;;;;4959701;28;20050;-71
2021/12/05 13:25:26;;;;;;;7.15;3.40;;;;;;;;;;4964296;28;20054;-71
2021/12/05 13:27:52;;;;;;;6.60;3.22;;;;;;;;;;4958238;28;20069;-70
2021/12/05 13:30:30;;;;;;;6.95;3.50;;;;;;;;;;4963202;28;20493;-71
2021/12/05 13:33:16;;;;;;;10.18;3.75;;;;;;;;;;4966215;28;20106;-71
2021/12/05 13:35:43;;;;;;;9.20;3.63;;;;;;;;;;4968158;28;20049;-71
2021/12/05 13:38:29;;;;;;;10.18;4.03;;;;;;;;;;4967502;28;20053;-71
2021/12/05 13:40:56;;;;;;;10.43;3.58;;;;;;;;;;4944268;28;20053;-71
2021/12/05 13:43:27;;;;;;;13.02;3.70;;;;;;;;;;4937899;28;20415;-71
2021/12/05 13:45:56;;;;;;;8.88;3.67;;;;;;;;;;4955730;28;20079;-71
2021/12/05 13:48:29;;;;;;;8.70;3.50;;;;;;;;;;4965510;28;20043;-72
2021/12/05 13:50:58;;;;;;;6.80;3.30;;;;;;;;;;4951889;28;20093;-71
2021/12/05 13:53:27;;;;;;;5.47;3.03;;;;;;;;;;4964827;28;20066;-71
2021/12/05 13:55:53;;;;;;;8.85;3.22;;;;;;;;;;4952029;28;20043;-71
2021/12/05 13:58:38;;;;;;;7.80;3.78;;;;;;;;;;4950418;28;20043;-71
2021/12/05 14:01:04;;;;;;;6.60;3.08;;;;;;;;;;4954384;28;20726;-71
2021/12/05 14:03:44;;;;;;;5.45;3.55;;;;;;;;;;4953512;28;20051;-71
2021/12/05 14:06:23;;;;;;;6.85;3.50;;;;;;;;;;4966570;28;20050;-71
2021/12/05 14:08:50;;;;;;;9.38;4.00;;;;;;;;;;4967842;28;20039;-71
2021/12/05 14:11:16;;;;;;;9.70;4.15;;;;;;;;;;4949734;28;20112;-70
2021/12/05 14:13:42;;;;;;;6.50;3.88;;;;;;;;;;4948110;28;20093;-70
2021/12/05 14:16:08;;;;;;;5.57;3.47;;;;;;;;;;4966843;28;20030;-70
2021/12/05 14:18:35;;;;;;;10.45;3.97;;;;;;;;;;4948172;28;20112;-70
2021/12/05 14:21:13;;;;;;;8.40;3.75;;;;;;;;;;4951758;28;20057;-71
2021/12/05 14:23:39;;;;;;;6.47;3.70;;;;;;;;;;4958268;28;20126;-70
2021/12/05 14:26:15;;;;;;;6.00;3.40;;;;;;;;;;4949703;28;20134;-70
2021/12/05 14:28:41;;;;;;;7.70;3.47;;;;;;;;;;4949783;28;20431;-70
2021/12/05 14:31:07;;;;;;;7.80;3.50;;;;;;;;;;4960057;28;20043;-70
2021/12/05 14:33:47;;;;;;;9.90;3.75;;;;;;;;;;4957450;28;20519;-70
2021/12/05 14:36:22;;;;;;;10.52;3.28;;;;;;;;;;4952625;28;20383;-70
2021/12/05 14:39:04;;;;;;;7.40;3.22;;;;;;;;;;4950446;28;20047;-70
2021/12/05 14:41:31;;;;;;;11.82;3.50;;;;;;;;;;4960696;28;20047;-70
2021/12/05 14:43:57;;;;;;;4.97;3.15;;;;;;;;;;4951762;28;20054;-70
2021/12/05 14:46:24;;;;;;;7.43;3.53;;;;;;;;;;4966924;28;20047;-71
2021/12/05 14:48:55;;;;;;;7.68;3.40;;;;;;;;;;4965364;28;20041;-70
2021/12/05 14:51:38;;;;;;;7.18;3.55;;;;;;;;;;4963330;28;20053;-71
2021/12/05 14:54:05;;;;;;;6.93;3.85;;;;;;;;;;4952888;28;20516;-70
2021/12/05 14:56:33;;;;;;;5.95;3.40;;;;;;;;;;4963710;28;20355;-70
2021/12/05 14:59:07;;;;;;;5.70;3.40;;;;;;;;;;4964283;28;20034;-70
2021/12/05 15:01:34;;;;;;;8.90;3.80;;;;;;;;;;4947548;28;20726;-70
2021/12/05 15:04:02;;;;;;;8.68;3.67;;;;;;;;;;4948087;28;20043;-70
2021/12/05 15:06:35;;;;;;;5.10;3.30;;;;;;;;;;4944461;28;20129;-70
2021/12/05 15:09:03;;;;;;;7.88;3.30;;;;;;;;;;4963826;28;20078;-70
2021/12/05 15:11:29;;;;;;;6.65;3.65;;;;;;;;;;4964162;28;20059;-70
2021/12/05 15:14:03;;;;;;;9.15;3.47;;;;;;;;;;4963072;28;20042;-70
2021/12/05 15:16:30;;;;;;;10.65;3.25;;;;;;;;;;4957653;28;20484;-70
2021/12/05 15:18:56;;;;;;;7.85;3.50;;;;;;;;;;4953349;28;20043;-70
2021/12/05 15:21:22;;;;;;;7.18;3.40;;;;;;;;;;4960332;28;20066;-71
2021/12/05 15:23:48;;;;;;;6.38;3.20;;;;;;;;;;4951574;28;20507;-70
2021/12/05 15:26:15;;;;;;;6.30;3.40;;;;;;;;;;4963136;28;20102;-70
2021/12/05 15:28:41;;;;;;;5.22;3.38;;;;;;;;;;4962130;28;20076;-70
2021/12/05 15:31:10;;;;;;;6.60;3.22;;;;;;;;;;4955001;28;20512;-70
2021/12/05 15:33:37;;;;;;;6.88;3.17;;;;;;;;;;4960559;28;20050;-70
2021/12/05 15:36:04;;;;;;;8.30;3.47;;;;;;;;;;4947396;28;20105;-71
2021/12/05 15:38:32;;;;;;;5.22;3.15;;;;;;;;;;4937695;28;20058;-70
2021/12/05 15:41:00;;;;;;;7.25;3.10;;;;;;;;;;4962824;28;20409;-70
2021/12/05 15:43:27;;;;;;;4.70;3.20;;;;;;;;;;4964683;28;20081;-70
2021/12/05 15:45:54;;;;;;;6.25;3.00;;;;;;;;;;4933818;28;20516;-70
2021/12/05 15:48:29;;;;;;;8.90;3.15;;;;;;;;;;4949134;28;20051;-71
2021/12/05 15:50:56;;;;;;;8.95;3.92;;;;;;;;;;4961436;28;20050;-72
2021/12/05 15:53:23;;;;;;;6.68;3.47;;;;;;;;;;4958434;28;20119;-71
2021/12/05 15:55:52;;;;;;;6.28;3.05;;;;;;;;;;4967082;28;20069;-71
2021/12/05 15:58:23;;;;;;;5.95;2.95;;;;;;;;;;4949258;28;20106;-70
2021/12/05 16:00:57;;;;;;;6.20;3.17;;;;;;;;;;4966930;28;20129;-70
2021/12/05 16:03:26;;;;;;;8.48;3.47;;;;;;;;;;4966525;28;20047;-71
2021/12/05 16:05:54;;;;;;;5.63;3.30;;;;;;;;;;4957129;28;20076;-71
2021/12/05 16:08:20;;;;;;;5.05;3.53;;;;;;;;;;4951194;28;20520;-71
2021/12/05 16:10:48;;;;;;;6.15;3.60;;;;;;;;;;4964127;28;20054;-71
2021/12/05 16:13:16;;;;;;;8.60;3.78;;;;;;;;;;4963345;28;20521;-67
2021/12/05 16:15:43;;;;;;;8.45;3.75;;;;;;;;;;4958861;28;20070;-69
2021/12/05 16:18:09;;;;;;;9.57;5.22;;;;;;;;;;4964636;28;20035;-68
2021/12/05 16:20:37;;;;;;;11.23;4.88;;;;;;;;;;4941109;28;20051;-69
2021/12/05 16:23:06;;;;;;;12.88;4.60;;;;;;;;;;4950772;28;20490;-69
2021/12/05 16:25:34;;;;;;;12.10;7.03;;;;;;;;;;4952560;28;20138;-69
2021/12/05 16:28:02;;;;;;;11.43;5.93;;;;;;;;;;4960546;28;20047;-69
2021/12/05 16:30:32;;;;;;;13.30;5.33;;;;;;;;;;4950600;28;20061;-69
2021/12/05 16:33:00;;;;;;;9.02;5.57;;;;;;;;;;4931958;28;20393;-69
2021/12/05 16:35:28;;;;;;;9.20;6.07;;;;;;;;;;4940235;28;20046;-69
2021/12/05 16:37:54;;;;;;;14.00;6.53;;;;;;;;;;4964816;28;20121;-69
2021/12/05 16:40:21;;;;;;;10.95;6.15;;;;;;;;;;4963750;28;20093;-68
2021/12/05 16:42:47;;;;;;;14.43;6.25;;;;;;;;;;4937680;28;20409;-69
2021/12/05 16:45:13;;;;;;;15.40;7.45;;;;;;;;;;4964731;28;20035;-68
2021/12/05 16:47:39;;;;;;;16.05;6.68;;;;;;;;;;4957013;28;20133;-69
2021/12/05 16:50:10;;;;;;;13.23;7.03;;;;;;;;;;4956245;28;20039;-70
2021/12/05 16:52:41;;;;;;;21.80;9.65;;;;;;;;;;4956191;28;20043;-69
2021/12/05 16:55:19;;;;;;;17.02;8.32;;;;;;;;;;4957731;28;20051;-69
2021/12/05 16:57:56;;;;;;;15.35;8.60;;;;;;;;;;4963298;28;20396;-67
2021/12/05 17:00:23;;;;;;;18.98;9.40;;;;;;;;;;4965681;28;20046;-67
2021/12/05 17:02:52;;;;;;;18.85;7.45;;;;;;;;;;4965810;28;20102;-68
2021/12/05 17:05:21;;;;;;;19.30;7.60;;;;;;;;;;4946526;29;20058;-68
2021/12/05 17:07:54;;;;;;;17.48;7.13;;;;;;;;;;4949289;28;20199;-68
2021/12/05 17:10:21;;;;;;;12.73;6.88;;;;;;;;;;4965912;28;20055;-68
2021/12/05 17:12:49;;;;;;;14.43;7.60;;;;;;;;;;4965556;28;20050;-68
2021/12/05 17:15:18;;;;;;;15.65;7.72;;;;;;;;;;4965181;28;20127;-68
2021/12/05 17:17:45;;;;;;;16.23;7.68;;;;;;;;;;4962973;28;20054;-70
2021/12/05 17:20:23;;;;;;;13.13;7.53;;;;;;;;;;4960889;28;20061;-71
2021/12/05 17:22:55;;;;;;;16.97;9.20;;;;;;;;;;4962516;28;20129;-71
2021/12/05 17:25:33;;;;;;;20.15;9.65;;;;;;;;;;4962454;28;20332;-72
2021/12/05 17:28:00;;;;;;;20.08;10.18;;;;;;;;;;4958983;28;20057;-70
2021/12/05 17:30:27;;;;;;;20.08;10.85;;;;;;;;;;4961593;28;20055;-70
2021/12/05 17:32:54;;;;;;;16.90;9.50;;;;;;;;;;4959744;28;20506;-71
2021/12/05 17:35:21;;;;;;;26.65;17.27;;;;;;;;;;4960827;28;20042;-71
2021/12/05 17:37:47;;;;;;;28.80;18.70;;;;;;;;;;4961154;28;20042;-71
2021/12/05 17:40:14;;;;;;;20.30;8.88;;;;;;;;;;4966849;28;20085;-70
2021/12/05 17:42:42;;;;;;;49.80;35.78;;;;;;;;;;4966020;28;20050;-70
2021/12/05 17:45:09;;;;;;;24.75;9.90;;;;;;;;;;4949092;28;20082;-71
2021/12/05 17:47:36;;;;;;;17.42;10.32;;;;;;;;;;4962957;28;20528;-71
2021/12/05 17:50:05;;;;;;;32.30;14.88;;;;;;;;;;4966440;28;20053;-71
2021/12/05 17:52:32;;;;;;;32.50;15.75;;;;;;;;;;4966615;28;20085;-71
2021/12/05 17:55:07;;;;;;;27.20;13.80;;;;;;;;;;4968181;28;20452;-70
2021/12/05 17:57:41;;;;;;;46.67;26.10;;;;;;;;;;4964406;28;20481;-71
2021/12/05 18:00:14;;;;;;;26.42;12.93;;;;;;;;;;4965530;28;20097;-69
2021/12/05 18:02:45;;;;;;;20.75;11.77;;;;;;;;;;4946843;28;20303;-69
2021/12/05 18:05:21;;;;;;;25.13;12.25;;;;;;;;;;4965198;28;20122;-68
2021/12/05 18:07:49;;;;;;;28.92;10.85;;;;;;;;;;4963567;28;20889;-69
2021/12/05 18:10:17;;;;;;;21.27;11.10;;;;;;;;;;4960341;28;20050;-69
2021/12/05 18:12:45;;;;;;;28.58;14.95;;;;;;;;;;4955306;28;20055;-70
2021/12/05 18:15:16;;;;;;;23.90;11.87;;;;;;;;;;4938719;28;20131;-68
2021/12/05 18:17:43;;;;;;;22.02;10.82;;;;;;;;;;4956039;28;20047;-69
2021/12/05 18:20:12;;;;;;;24.88;13.15;;;;;;;;;;4956996;28;20047;-68
2021/12/05 18:22:38;;;;;;;28.15;11.77;;;;;;;;;;4963136;28;20054;-68
2021/12/05 18:25:05;;;;;;;24.25;13.45;;;;;;;;;;4946005;28;20034;-68
2021/12/05 18:27:32;;;;;;;30.08;16.77;;;;;;;;;;4962669;28;20102;-69
2021/12/05 18:29:58;;;;;;;25.92;13.98;;;;;;;;;;4963444;28;20058;-70
2021/12/05 18:32:24;;;;;;;32.85;15.98;;;;;;;;;;4948073;28;20461;-68
2021/12/05 18:34:51;;;;;;;30.70;17.88;;;;;;;;;;4965146;28;20158;-69
2021/12/05 18:37:17;;;;;;;32.22;19.67;;;;;;;;;;4948215;28;20050;-70
2021/12/05 18:39:46;;;;;;;36.00;18.92;;;;;;;;;;4965183;28;20043;-69
2021/12/05 18:42:13;;;;;;;58.60;34.30;;;;;;;;;;4959739;28;20110;-69
2021/12/05 18:44:46;;;;;;;39.78;21.25;;;;;;;;;;4964820;28;20043;-68
2021/12/05 18:47:12;;;;;;;33.47;16.38;;;;;;;;;;4958573;28;20058;-69
2021/12/05 18:49:39;;;;;;;37.53;24.50;;;;;;;;;;4961278;28;20497;-69
2021/12/05 18:52:06;;;;;;;48.65;28.25;;;;;;;;;;4962194;28;20065;-69
2021/12/05 18:54:35;;;;;;;33.47;14.60;;;;;;;;;;4961464;28;20444;-69
2021/12/05 18:57:01;;;;;;;;;;;;;;;;;;4964226;28;20038;-69
2021/12/05 18:59:31;;;;;;;28.48;15.70;;;;;;;;;;4964271;28;20021;-69
2021/12/05 19:04:50;;;;;;;27.02;14.77;;;;;;;;;;4964642;28;20493;-70
2021/12/05 19:07:29;;;;;;;31.33;15.30;;;;;;;;;;4946768;28;20065;-68
2021/12/05 19:12:32;;;;;;;33.08;19.15;;;;;;;;;;4961136;28;20155;-69
2021/12/05 19:15:00;;;;;;;29.42;14.90;;;;;;;;;;4963388;28;20043;-71